JKK5507 GCLP-LEZL
Flight info
| Callsign | JKK5507 |
|---|---|
| Flight time | 1h 49m |
| Altitude | 36000 |
| Route | KORAL UG5 SONSO DCT NIRAL UN871 ADUBI DCT VJF |
| Aircraft | A320/M-SDE3FGHIRWY/LB1 |
Departure
| Time | 2026-04-28 21:21 |
|---|---|
| Airport | Gran Canaria Airport (GCLP) |
Arrival
| Time | 2026-04-28 23:10 |
|---|---|
| Airport | Seville Airport (LEZL) |
| Time | Latitude | Longitude | Altitude | Speed | Heading |
|---|---|---|---|---|---|
| 2026-04-28 20:59 | 27.93648 | -15.38917 | 90 ft | 0 kts | 291° |
| 2026-04-28 21:09 | 27.93640 | -15.38897 | 86 ft | 4 kts | 294° |
| 2026-04-28 21:09 | 27.93628 | -15.38870 | 85 ft | 4 kts | 302° |
| 2026-04-28 21:10 | 27.93612 | -15.38846 | 87 ft | 4 kts | 324° |
| 2026-04-28 21:10 | 27.93592 | -15.38838 | 86 ft | 2 kts | 20° |
| 2026-04-28 21:10 | 27.93587 | -15.38840 | 85 ft | 0 kts | 21° |
| 2026-04-28 21:12 | 27.93588 | -15.38840 | 85 ft | 1 kts | 21° |
| 2026-04-28 21:12 | 27.93599 | -15.38835 | 88 ft | 3 kts | 21° |
| 2026-04-28 21:12 | 27.93629 | -15.38822 | 89 ft | 6 kts | 21° |
| 2026-04-28 21:13 | 27.93674 | -15.38803 | 83 ft | 8 kts | 21° |
| 2026-04-28 21:13 | 27.93736 | -15.38776 | 85 ft | 11 kts | 21° |
| 2026-04-28 21:13 | 27.93810 | -15.38743 | 86 ft | 12 kts | 21° |
| 2026-04-28 21:13 | 27.93897 | -15.38704 | 87 ft | 14 kts | 21° |
| 2026-04-28 21:14 | 27.93997 | -15.38659 | 82 ft | 17 kts | 21° |
| 2026-04-28 21:14 | 27.94069 | -15.38590 | 68 ft | 15 kts | 97° |
| 2026-04-28 21:14 | 27.94029 | -15.38488 | 71 ft | 12 kts | 171° |
| 2026-04-28 21:14 | 27.93955 | -15.38511 | 74 ft | 10 kts | 201° |
| 2026-04-28 21:15 | 27.93892 | -15.38539 | 75 ft | 9 kts | 201° |
| 2026-04-28 21:15 | 27.93831 | -15.38566 | 77 ft | 10 kts | 201° |
| 2026-04-28 21:15 | 27.93761 | -15.38599 | 75 ft | 12 kts | 201° |
| 2026-04-28 21:15 | 27.93684 | -15.38620 | 73 ft | 12 kts | 196° |
| 2026-04-28 21:16 | 27.93608 | -15.38662 | 75 ft | 13 kts | 204° |
| 2026-04-28 21:16 | 27.93520 | -15.38705 | 75 ft | 15 kts | 202° |
| 2026-04-28 21:16 | 27.93417 | -15.38751 | 73 ft | 17 kts | 201° |
| 2026-04-28 21:16 | 27.93297 | -15.38803 | 75 ft | 19 kts | 200° |
| 2026-04-28 21:17 | 27.93163 | -15.38856 | 71 ft | 22 kts | 200° |
| 2026-04-28 21:17 | 27.93032 | -15.38926 | 76 ft | 20 kts | 207° |
| 2026-04-28 21:17 | 27.92902 | -15.38991 | 84 ft | 20 kts | 199° |
| 2026-04-28 21:17 | 27.92769 | -15.39042 | 88 ft | 20 kts | 198° |
| 2026-04-28 21:18 | 27.92640 | -15.39091 | 91 ft | 19 kts | 203° |
| 2026-04-28 21:18 | 27.92521 | -15.39149 | 93 ft | 18 kts | 202° |
| 2026-04-28 21:18 | 27.92404 | -15.39201 | 97 ft | 18 kts | 202° |
| 2026-04-28 21:18 | 27.92292 | -15.39252 | 101 ft | 17 kts | 202° |
| 2026-04-28 21:19 | 27.92177 | -15.39302 | 98 ft | 19 kts | 194° |
| 2026-04-28 21:19 | 27.92027 | -15.39299 | 91 ft | 24 kts | 177° |
| 2026-04-28 21:19 | 27.91914 | -15.39260 | 88 ft | 17 kts | 127° |
| 2026-04-28 21:19 | 27.91867 | -15.39133 | 82 ft | 20 kts | 111° |
| 2026-04-28 21:20 | 27.91898 | -15.38999 | 67 ft | 23 kts | 26° |
| 2026-04-28 21:20 | 27.92182 | -15.38875 | 64 ft | 75 kts | 21° |
| 2026-04-28 21:20 | 27.92851 | -15.38579 | 47 ft | 128 kts | 20° |
| 2026-04-28 21:20 | 27.93762 | -15.38173 | 320 ft | 141 kts | 20° |
| 2026-04-28 21:21 | 27.94689 | -15.37738 | 752 ft | 146 kts | 21° |
| 2026-04-28 21:21 | 27.95643 | -15.37284 | 1176 ft | 152 kts | 19° |
| 2026-04-28 21:21 | 27.96640 | -15.36887 | 1678 ft | 152 kts | 18° |
| 2026-04-28 21:21 | 27.97696 | -15.36486 | 1826 ft | 176 kts | 18° |
| 2026-04-28 21:22 | 27.98865 | -15.35845 | 1945 ft | 204 kts | 39° |
| 2026-04-28 21:22 | 27.99814 | -15.34507 | 2202 ft | 231 kts | 52° |
| 2026-04-28 21:22 | 28.00805 | -15.32972 | 2639 ft | 251 kts | 51° |
| 2026-04-28 21:22 | 28.01515 | -15.31876 | 3117 ft | 258 kts | 52° |
| 2026-04-28 21:23 | 28.02944 | -15.29667 | 4200 ft | 265 kts | 51° |
| 2026-04-28 21:23 | 28.04037 | -15.27978 | 5085 ft | 268 kts | 52° |
| 2026-04-28 21:23 | 28.05196 | -15.26316 | 5934 ft | 269 kts | 43° |
| 2026-04-28 21:23 | 28.06559 | -15.24857 | 6772 ft | 271 kts | 41° |
| 2026-04-28 21:24 | 28.07956 | -15.23392 | 7504 ft | 276 kts | 40° |
| 2026-04-28 21:24 | 28.09378 | -15.21905 | 8248 ft | 280 kts | 40° |
| 2026-04-28 21:24 | 28.10827 | -15.20393 | 8973 ft | 286 kts | 41° |
| 2026-04-28 21:24 | 28.12300 | -15.18852 | 9684 ft | 291 kts | 40° |
| 2026-04-28 21:25 | 28.13801 | -15.17280 | 10314 ft | 298 kts | 40° |
| 2026-04-28 21:25 | 28.15366 | -15.15641 | 10507 ft | 321 kts | 41° |
| 2026-04-28 21:25 | 28.17061 | -15.13861 | 10660 ft | 343 kts | 41° |
| 2026-04-28 21:25 | 28.18834 | -15.11995 | 11130 ft | 352 kts | 41° |
| 2026-04-28 21:26 | 28.20634 | -15.10093 | 11743 ft | 356 kts | 41° |
| 2026-04-28 21:26 | 28.22457 | -15.08166 | 12368 ft | 360 kts | 41° |
| 2026-04-28 21:26 | 28.24303 | -15.06220 | 13002 ft | 364 kts | 41° |
| 2026-04-28 21:26 | 28.26167 | -15.04254 | 13616 ft | 368 kts | 42° |
| 2026-04-28 21:27 | 28.28057 | -15.02272 | 14188 ft | 372 kts | 40° |
| 2026-04-28 21:27 | 28.29990 | -15.00301 | 14737 ft | 375 kts | 40° |
| 2026-04-28 21:27 | 28.31953 | -14.98333 | 15288 ft | 378 kts | 40° |
| 2026-04-28 21:27 | 28.33938 | -14.96355 | 15823 ft | 381 kts | 39° |
| 2026-04-28 21:28 | 28.35940 | -14.94361 | 16363 ft | 385 kts | 40° |
| 2026-04-28 21:28 | 28.37957 | -14.92344 | 16906 ft | 388 kts | 39° |
| 2026-04-28 21:28 | 28.39988 | -14.90305 | 17460 ft | 391 kts | 40° |
| 2026-04-28 21:28 | 28.42037 | -14.88238 | 18009 ft | 395 kts | 40° |
| 2026-04-28 21:29 | 28.44071 | -14.86181 | 18551 ft | 398 kts | 40° |
| 2026-04-28 21:29 | 28.46145 | -14.84080 | 19060 ft | 401 kts | 40° |
| 2026-04-28 21:29 | 28.48231 | -14.81965 | 19597 ft | 403 kts | 40° |
| 2026-04-28 21:29 | 28.50338 | -14.79835 | 20125 ft | 406 kts | 40° |
| 2026-04-28 21:30 | 28.52457 | -14.77692 | 20658 ft | 409 kts | 40° |
| 2026-04-28 21:30 | 28.54587 | -14.75536 | 21162 ft | 411 kts | 40° |
| 2026-04-28 21:30 | 28.56733 | -14.73362 | 21660 ft | 414 kts | 40° |
| 2026-04-28 21:30 | 28.58888 | -14.71178 | 22132 ft | 417 kts | 40° |
| 2026-04-28 21:31 | 28.61060 | -14.68974 | 22605 ft | 419 kts | 40° |
| 2026-04-28 21:31 | 28.63247 | -14.66757 | 23064 ft | 422 kts | 40° |
| 2026-04-28 21:31 | 28.65446 | -14.64528 | 23515 ft | 425 kts | 40° |
| 2026-04-28 21:31 | 28.67659 | -14.62283 | 23900 ft | 427 kts | 40° |
| 2026-04-28 21:32 | 28.69855 | -14.60053 | 24264 ft | 430 kts | 40° |
| 2026-04-28 21:32 | 28.72119 | -14.57750 | 24630 ft | 432 kts | 40° |
| 2026-04-28 21:32 | 28.74338 | -14.55489 | 25000 ft | 434 kts | 40° |
| 2026-04-28 21:32 | 28.76589 | -14.53195 | 25368 ft | 436 kts | 40° |
| 2026-04-28 21:33 | 28.78858 | -14.50883 | 25716 ft | 438 kts | 40° |
| 2026-04-28 21:33 | 28.81133 | -14.48564 | 26049 ft | 440 kts | 40° |
| 2026-04-28 21:33 | 28.83422 | -14.46227 | 26375 ft | 442 kts | 40° |
| 2026-04-28 21:33 | 28.85716 | -14.43882 | 26700 ft | 445 kts | 40° |
| 2026-04-28 21:34 | 28.88026 | -14.41520 | 27024 ft | 447 kts | 40° |
| 2026-04-28 21:34 | 28.90358 | -14.39140 | 27344 ft | 450 kts | 40° |
| 2026-04-28 21:34 | 28.92697 | -14.36750 | 27663 ft | 452 kts | 40° |
| 2026-04-28 21:34 | 28.95016 | -14.34377 | 27980 ft | 454 kts | 40° |
| 2026-04-28 21:35 | 28.97379 | -14.31960 | 28298 ft | 457 kts | 40° |
| 2026-04-28 21:35 | 28.99748 | -14.29532 | 28608 ft | 459 kts | 40° |
| 2026-04-28 21:35 | 29.02129 | -14.27089 | 28913 ft | 461 kts | 40° |
| 2026-04-28 21:35 | 29.04522 | -14.24631 | 29284 ft | 462 kts | 40° |
| 2026-04-28 21:36 | 29.06905 | -14.22179 | 29749 ft | 461 kts | 40° |
| 2026-04-28 21:36 | 29.09284 | -14.19732 | 30230 ft | 459 kts | 40° |
| 2026-04-28 21:36 | 29.11656 | -14.17297 | 30635 ft | 457 kts | 40° |
| 2026-04-28 21:36 | 29.14019 | -14.14873 | 31019 ft | 456 kts | 40° |
| 2026-04-28 21:37 | 29.16378 | -14.12452 | 31398 ft | 456 kts | 40° |
| 2026-04-28 21:37 | 29.18734 | -14.10028 | 31774 ft | 455 kts | 40° |
| 2026-04-28 21:37 | 29.21087 | -14.07603 | 32151 ft | 454 kts | 40° |
| 2026-04-28 21:37 | 29.23435 | -14.05180 | 32533 ft | 454 kts | 40° |
| 2026-04-28 21:38 | 29.25775 | -14.02762 | 32919 ft | 453 kts | 40° |
| 2026-04-28 21:38 | 29.28114 | -14.00344 | 33309 ft | 452 kts | 40° |
| 2026-04-28 21:38 | 29.30447 | -13.97931 | 33697 ft | 452 kts | 40° |
| 2026-04-28 21:38 | 29.32782 | -13.95514 | 34075 ft | 451 kts | 40° |
| 2026-04-28 21:39 | 29.35077 | -13.93136 | 34379 ft | 451 kts | 40° |
| 2026-04-28 21:39 | 29.37402 | -13.90730 | 34668 ft | 451 kts | 40° |
| 2026-04-28 21:39 | 29.39759 | -13.88290 | 34960 ft | 451 kts | 39° |
| 2026-04-28 21:39 | 29.42084 | -13.85881 | 35232 ft | 450 kts | 39° |
| 2026-04-28 21:40 | 29.44375 | -13.83503 | 35505 ft | 450 kts | 39° |
| 2026-04-28 21:40 | 29.46698 | -13.81088 | 35774 ft | 450 kts | 39° |
| 2026-04-28 21:40 | 29.49014 | -13.78676 | 35987 ft | 450 kts | 39° |
| 2026-04-28 21:40 | 29.51342 | -13.76254 | 36041 ft | 454 kts | 39° |
| 2026-04-28 21:41 | 29.56078 | -13.71336 | 36043 ft | 462 kts | 39° |
| 2026-04-28 21:41 | 29.60843 | -13.66381 | 36043 ft | 463 kts | 39° |
| 2026-04-28 21:42 | 29.65611 | -13.61405 | 36045 ft | 463 kts | 39° |
| 2026-04-28 21:42 | 29.70376 | -13.56426 | 36061 ft | 463 kts | 39° |
| 2026-04-28 21:43 | 29.75144 | -13.51436 | 36061 ft | 463 kts | 39° |
| 2026-04-28 21:43 | 29.79914 | -13.46447 | 36066 ft | 463 kts | 39° |
| 2026-04-28 21:44 | 29.84647 | -13.41488 | 36061 ft | 463 kts | 39° |
| 2026-04-28 21:44 | 29.89406 | -13.36483 | 36060 ft | 463 kts | 39° |
| 2026-04-28 21:45 | 29.94160 | -13.31480 | 36056 ft | 463 kts | 39° |
| 2026-04-28 21:45 | 29.98915 | -13.26474 | 36054 ft | 463 kts | 39° |
| 2026-04-28 21:46 | 30.03673 | -13.21462 | 36053 ft | 462 kts | 39° |
| 2026-04-28 21:46 | 30.08422 | -13.16451 | 36051 ft | 462 kts | 39° |
| 2026-04-28 21:47 | 30.13157 | -13.11433 | 36059 ft | 462 kts | 39° |
| 2026-04-28 21:47 | 30.17892 | -13.06410 | 36057 ft | 462 kts | 39° |
| 2026-04-28 21:48 | 30.22628 | -13.01397 | 36049 ft | 461 kts | 39° |
| 2026-04-28 21:48 | 30.27360 | -12.96380 | 36046 ft | 461 kts | 39° |
| 2026-04-28 21:49 | 30.32049 | -12.91389 | 36055 ft | 461 kts | 39° |
| 2026-04-28 21:49 | 30.36773 | -12.86361 | 36046 ft | 461 kts | 39° |
| 2026-04-28 21:50 | 30.41502 | -12.81330 | 36045 ft | 461 kts | 39° |
| 2026-04-28 21:50 | 30.46220 | -12.76288 | 36045 ft | 461 kts | 39° |
| 2026-04-28 21:51 | 30.50936 | -12.71239 | 36036 ft | 461 kts | 39° |
| 2026-04-28 21:51 | 30.55653 | -12.66186 | 36039 ft | 461 kts | 39° |
| 2026-04-28 21:52 | 30.60373 | -12.61138 | 36040 ft | 462 kts | 39° |
| 2026-04-28 21:52 | 30.65068 | -12.56104 | 36055 ft | 462 kts | 39° |
| 2026-04-28 21:53 | 30.69784 | -12.51039 | 36050 ft | 462 kts | 39° |
| 2026-04-28 21:53 | 30.73709 | -12.46822 | 36050 ft | 462 kts | 39° |
| 2026-04-28 21:54 | 30.78425 | -12.41746 | 36044 ft | 462 kts | 39° |
| 2026-04-28 21:54 | 30.83137 | -12.36647 | 36046 ft | 462 kts | 39° |
| 2026-04-28 21:55 | 30.87844 | -12.31551 | 36039 ft | 462 kts | 39° |
| 2026-04-28 21:55 | 30.92553 | -12.26454 | 36039 ft | 462 kts | 39° |
| 2026-04-28 21:56 | 30.97253 | -12.21354 | 36054 ft | 462 kts | 39° |
| 2026-04-28 21:56 | 31.01945 | -12.16257 | 36048 ft | 461 kts | 39° |
| 2026-04-28 21:57 | 31.06645 | -12.11157 | 36042 ft | 461 kts | 39° |
| 2026-04-28 21:57 | 31.11336 | -12.06050 | 36040 ft | 461 kts | 39° |
| 2026-04-28 21:58 | 31.16019 | -12.00940 | 36045 ft | 461 kts | 39° |
| 2026-04-28 21:58 | 31.20705 | -11.95835 | 36043 ft | 460 kts | 39° |
| 2026-04-28 21:59 | 31.25382 | -11.90729 | 36062 ft | 460 kts | 39° |
| 2026-04-28 22:00 | 31.32385 | -11.83052 | 36042 ft | 460 kts | 39° |
| 2026-04-28 22:00 | 31.37024 | -11.77975 | 36039 ft | 459 kts | 39° |
| 2026-04-28 22:01 | 31.41688 | -11.72856 | 36038 ft | 459 kts | 39° |
| 2026-04-28 22:01 | 31.46341 | -11.67727 | 36036 ft | 459 kts | 39° |
| 2026-04-28 22:02 | 31.50996 | -11.62590 | 36034 ft | 459 kts | 39° |
| 2026-04-28 22:02 | 31.55652 | -11.57460 | 36043 ft | 459 kts | 39° |
| 2026-04-28 22:03 | 31.60284 | -11.52358 | 36038 ft | 459 kts | 39° |
| 2026-04-28 22:03 | 31.64930 | -11.47221 | 36035 ft | 459 kts | 39° |
| 2026-04-28 22:04 | 31.69568 | -11.42066 | 36035 ft | 459 kts | 39° |
| 2026-04-28 22:04 | 31.74207 | -11.36908 | 36033 ft | 459 kts | 39° |
| 2026-04-28 22:05 | 31.78859 | -11.31746 | 36045 ft | 459 kts | 39° |
| 2026-04-28 22:05 | 31.83502 | -11.26589 | 36042 ft | 459 kts | 39° |
| 2026-04-28 22:06 | 31.88133 | -11.21434 | 36046 ft | 459 kts | 39° |
| 2026-04-28 22:06 | 31.92764 | -11.16265 | 36039 ft | 458 kts | 39° |
| 2026-04-28 22:07 | 31.97356 | -11.11128 | 36033 ft | 458 kts | 39° |
| 2026-04-28 22:07 | 32.01975 | -11.05962 | 36030 ft | 458 kts | 39° |
| 2026-04-28 22:08 | 32.06594 | -11.00784 | 36025 ft | 458 kts | 39° |
| 2026-04-28 22:08 | 32.11205 | -10.95601 | 36024 ft | 458 kts | 39° |
| 2026-04-28 22:09 | 32.15811 | -10.90422 | 36053 ft | 457 kts | 39° |
| 2026-04-28 22:09 | 32.20417 | -10.85243 | 36029 ft | 457 kts | 39° |
| 2026-04-28 22:10 | 32.24983 | -10.80095 | 36022 ft | 457 kts | 39° |
| 2026-04-28 22:10 | 32.29583 | -10.74905 | 36020 ft | 456 kts | 39° |
| 2026-04-28 22:11 | 32.34174 | -10.69718 | 36016 ft | 457 kts | 39° |
| 2026-04-28 22:11 | 32.38760 | -10.64509 | 36017 ft | 457 kts | 39° |
| 2026-04-28 22:12 | 32.43342 | -10.59309 | 36015 ft | 457 kts | 39° |
| 2026-04-28 22:12 | 32.47928 | -10.54098 | 36002 ft | 455 kts | 39° |
| 2026-04-28 22:13 | 32.52469 | -10.48933 | 35998 ft | 455 kts | 39° |
| 2026-04-28 22:13 | 32.57037 | -10.43737 | 35995 ft | 456 kts | 39° |
| 2026-04-28 22:14 | 32.61613 | -10.38522 | 36003 ft | 456 kts | 39° |
| 2026-04-28 22:14 | 32.66189 | -10.33298 | 36002 ft | 456 kts | 39° |
| 2026-04-28 22:15 | 32.70761 | -10.28057 | 36003 ft | 456 kts | 39° |
| 2026-04-28 22:15 | 32.75299 | -10.22849 | 36019 ft | 456 kts | 39° |
| 2026-04-28 22:16 | 32.79863 | -10.17614 | 36026 ft | 456 kts | 39° |
| 2026-04-28 22:16 | 32.84426 | -10.12377 | 36017 ft | 456 kts | 39° |
| 2026-04-28 22:17 | 32.88986 | -10.07129 | 36010 ft | 456 kts | 39° |
| 2026-04-28 22:17 | 32.93542 | -10.01871 | 36004 ft | 456 kts | 39° |
| 2026-04-28 22:18 | 32.98099 | -9.96606 | 36002 ft | 456 kts | 39° |
| 2026-04-28 22:18 | 33.02647 | -9.91340 | 36001 ft | 456 kts | 39° |
| 2026-04-28 22:19 | 33.07194 | -9.86074 | 36000 ft | 456 kts | 39° |
| 2026-04-28 22:19 | 33.11719 | -9.80839 | 36002 ft | 456 kts | 39° |
| 2026-04-28 22:20 | 33.16258 | -9.75559 | 35999 ft | 456 kts | 39° |
| 2026-04-28 22:20 | 33.20793 | -9.70274 | 35997 ft | 456 kts | 39° |
| 2026-04-28 22:21 | 33.25330 | -9.64986 | 35992 ft | 456 kts | 39° |
| 2026-04-28 22:21 | 33.29867 | -9.59699 | 35990 ft | 456 kts | 39° |
| 2026-04-28 22:22 | 33.34401 | -9.54404 | 36006 ft | 456 kts | 39° |
| 2026-04-28 22:22 | 33.38935 | -9.49098 | 36000 ft | 456 kts | 39° |
| 2026-04-28 22:23 | 33.43432 | -9.43812 | 36006 ft | 456 kts | 40° |
| 2026-04-28 22:23 | 33.47955 | -9.38492 | 35994 ft | 456 kts | 40° |
| 2026-04-28 22:24 | 33.52485 | -9.33166 | 35989 ft | 456 kts | 40° |
| 2026-04-28 22:24 | 33.57014 | -9.27844 | 35993 ft | 456 kts | 39° |
| 2026-04-28 22:25 | 33.61548 | -9.22507 | 36010 ft | 456 kts | 40° |
| 2026-04-28 22:25 | 33.66068 | -9.17153 | 36003 ft | 456 kts | 40° |
| 2026-04-28 22:26 | 33.70582 | -9.11801 | 35995 ft | 456 kts | 40° |
| 2026-04-28 22:26 | 33.75097 | -9.06448 | 35993 ft | 456 kts | 40° |
| 2026-04-28 22:27 | 33.79618 | -9.01097 | 35988 ft | 456 kts | 40° |
| 2026-04-28 22:27 | 33.84105 | -8.95763 | 35984 ft | 456 kts | 40° |
| 2026-04-28 22:28 | 33.88616 | -8.90387 | 35981 ft | 456 kts | 40° |
| 2026-04-28 22:28 | 33.93121 | -8.85012 | 35990 ft | 456 kts | 40° |
| 2026-04-28 22:29 | 33.97627 | -8.79635 | 35983 ft | 456 kts | 40° |
| 2026-04-28 22:29 | 34.02127 | -8.74239 | 35980 ft | 456 kts | 40° |
| 2026-04-28 22:30 | 34.06633 | -8.68841 | 35989 ft | 456 kts | 40° |
| 2026-04-28 22:30 | 34.11140 | -8.63445 | 35982 ft | 456 kts | 40° |
| 2026-04-28 22:31 | 34.15636 | -8.58031 | 35976 ft | 457 kts | 40° |
| 2026-04-28 22:31 | 34.20135 | -8.52614 | 35979 ft | 457 kts | 41° |
| 2026-04-28 22:32 | 34.24597 | -8.47229 | 35970 ft | 457 kts | 41° |
| 2026-04-28 22:32 | 34.29085 | -8.41805 | 35968 ft | 457 kts | 41° |
| 2026-04-28 22:33 | 34.33578 | -8.36368 | 35963 ft | 457 kts | 41° |
| 2026-04-28 22:33 | 34.38070 | -8.30922 | 35967 ft | 457 kts | 41° |
| 2026-04-28 22:34 | 34.42570 | -8.25467 | 35959 ft | 458 kts | 41° |
| 2026-04-28 22:34 | 34.47072 | -8.19995 | 35968 ft | 458 kts | 41° |
| 2026-04-28 22:35 | 34.51575 | -8.14511 | 35960 ft | 459 kts | 41° |
| 2026-04-28 22:35 | 34.56082 | -8.09016 | 35958 ft | 459 kts | 41° |
| 2026-04-28 22:36 | 34.60556 | -8.03545 | 35953 ft | 459 kts | 41° |
| 2026-04-28 22:36 | 34.65061 | -7.98030 | 35955 ft | 460 kts | 41° |
| 2026-04-28 22:37 | 34.69573 | -7.92511 | 35956 ft | 460 kts | 41° |
| 2026-04-28 22:37 | 34.74077 | -7.86994 | 35976 ft | 460 kts | 41° |
| 2026-04-28 22:38 | 34.78584 | -7.81451 | 35963 ft | 460 kts | 41° |
| 2026-04-28 22:38 | 34.83084 | -7.75904 | 35952 ft | 460 kts | 41° |
| 2026-04-28 22:39 | 34.87582 | -7.70340 | 35950 ft | 461 kts | 41° |
| 2026-04-28 22:39 | 34.92051 | -7.64813 | 35949 ft | 461 kts | 41° |
| 2026-04-28 22:40 | 34.96554 | -7.59249 | 35954 ft | 461 kts | 42° |
| 2026-04-28 22:40 | 35.01066 | -7.53662 | 35931 ft | 463 kts | 43° |
| 2026-04-28 22:41 | 35.05578 | -7.48041 | 35930 ft | 464 kts | 43° |
| 2026-04-28 22:41 | 35.10098 | -7.42413 | 35925 ft | 465 kts | 43° |
| 2026-04-28 22:42 | 35.14630 | -7.36770 | 35926 ft | 465 kts | 43° |
| 2026-04-28 22:42 | 35.19172 | -7.31111 | 35929 ft | 466 kts | 43° |
| 2026-04-28 22:43 | 35.23706 | -7.25439 | 35932 ft | 466 kts | 43° |
| 2026-04-28 22:43 | 35.27472 | -7.20720 | 35939 ft | 466 kts | 43° |
| 2026-04-28 22:44 | 35.32772 | -7.14066 | 35920 ft | 468 kts | 44° |
| 2026-04-28 22:44 | 35.37295 | -7.08382 | 35902 ft | 469 kts | 44° |
| 2026-04-28 22:45 | 35.41110 | -7.03584 | 35911 ft | 469 kts | 44° |
| 2026-04-28 22:45 | 35.45667 | -6.97847 | 35914 ft | 470 kts | 44° |
| 2026-04-28 22:46 | 35.50194 | -6.92124 | 35907 ft | 470 kts | 44° |
| 2026-04-28 22:46 | 35.54747 | -6.86356 | 35926 ft | 470 kts | 44° |
| 2026-04-28 22:47 | 35.59303 | -6.80578 | 35924 ft | 471 kts | 45° |
| 2026-04-28 22:47 | 35.63869 | -6.74789 | 35908 ft | 472 kts | 45° |
| 2026-04-28 22:48 | 35.68438 | -6.68974 | 35897 ft | 473 kts | 45° |
| 2026-04-28 22:48 | 35.73017 | -6.63135 | 35894 ft | 474 kts | 45° |
| 2026-04-28 22:49 | 35.77595 | -6.57297 | 35907 ft | 474 kts | 45° |
| 2026-04-28 22:49 | 35.82176 | -6.51450 | 35913 ft | 474 kts | 45° |
| 2026-04-28 22:50 | 35.86756 | -6.45573 | 35571 ft | 475 kts | 46° |
| 2026-04-28 22:50 | 35.89049 | -6.42630 | 35126 ft | 476 kts | 47° |
| 2026-04-28 22:50 | 35.91358 | -6.39667 | 34264 ft | 482 kts | 47° |
| 2026-04-28 22:50 | 35.93695 | -6.36671 | 33288 ft | 487 kts | 48° |
| 2026-04-28 22:51 | 35.96050 | -6.33646 | 32344 ft | 489 kts | 47° |
| 2026-04-28 22:51 | 35.98363 | -6.30668 | 31761 ft | 484 kts | 47° |
| 2026-04-28 22:51 | 36.00688 | -6.27674 | 31178 ft | 480 kts | 47° |
| 2026-04-28 22:51 | 36.02989 | -6.24707 | 30587 ft | 476 kts | 47° |
| 2026-04-28 22:52 | 36.05274 | -6.21757 | 29995 ft | 473 kts | 47° |
| 2026-04-28 22:52 | 36.07540 | -6.18828 | 29349 ft | 469 kts | 47° |
| 2026-04-28 22:52 | 36.09781 | -6.15928 | 28776 ft | 464 kts | 47° |
| 2026-04-28 22:52 | 36.11995 | -6.13058 | 28192 ft | 459 kts | 47° |
| 2026-04-28 22:53 | 36.14188 | -6.10217 | 27614 ft | 454 kts | 47° |
| 2026-04-28 22:53 | 36.16359 | -6.07403 | 27053 ft | 450 kts | 47° |
| 2026-04-28 22:53 | 36.18511 | -6.04610 | 26506 ft | 446 kts | 47° |
| 2026-04-28 22:53 | 36.20647 | -6.01836 | 25960 ft | 443 kts | 46° |
| 2026-04-28 22:54 | 36.22896 | -5.99339 | 25437 ft | 439 kts | 36° |
| 2026-04-28 22:54 | 36.25474 | -5.97346 | 24951 ft | 435 kts | 26° |
| 2026-04-28 22:54 | 36.28253 | -5.95936 | 24477 ft | 430 kts | 16° |
| 2026-04-28 22:54 | 36.31107 | -5.94862 | 24014 ft | 426 kts | 15° |
| 2026-04-28 22:55 | 36.33936 | -5.93795 | 23557 ft | 423 kts | 15° |
| 2026-04-28 22:55 | 36.36747 | -5.92732 | 23061 ft | 420 kts | 15° |
| 2026-04-28 22:55 | 36.39534 | -5.91682 | 22610 ft | 416 kts | 15° |
| 2026-04-28 22:55 | 36.42293 | -5.90639 | 22161 ft | 413 kts | 15° |
| 2026-04-28 22:56 | 36.45034 | -5.89600 | 21693 ft | 410 kts | 16° |
| 2026-04-28 22:56 | 36.47754 | -5.88567 | 21244 ft | 408 kts | 16° |
| 2026-04-28 22:56 | 36.50463 | -5.87537 | 20767 ft | 405 kts | 16° |
| 2026-04-28 22:56 | 36.53159 | -5.86513 | 20293 ft | 403 kts | 16° |
| 2026-04-28 22:57 | 36.55830 | -5.85495 | 19810 ft | 401 kts | 16° |
| 2026-04-28 22:57 | 36.58496 | -5.84480 | 19326 ft | 399 kts | 16° |
| 2026-04-28 22:57 | 36.61143 | -5.83472 | 18836 ft | 397 kts | 16° |
| 2026-04-28 22:57 | 36.63784 | -5.82470 | 18341 ft | 396 kts | 16° |
| 2026-04-28 22:58 | 36.66381 | -5.81484 | 17798 ft | 394 kts | 16° |
| 2026-04-28 22:58 | 36.68990 | -5.80494 | 17316 ft | 389 kts | 16° |
| 2026-04-28 22:58 | 36.71567 | -5.79515 | 16803 ft | 385 kts | 16° |
| 2026-04-28 22:58 | 36.74108 | -5.78547 | 16318 ft | 381 kts | 16° |
| 2026-04-28 22:59 | 36.76644 | -5.77580 | 15835 ft | 378 kts | 16° |
| 2026-04-28 22:59 | 36.79143 | -5.76626 | 15352 ft | 375 kts | 16° |
| 2026-04-28 22:59 | 36.81627 | -5.75676 | 14869 ft | 372 kts | 16° |
| 2026-04-28 22:59 | 36.84102 | -5.74728 | 14383 ft | 369 kts | 16° |
| 2026-04-28 23:00 | 36.86549 | -5.73792 | 13906 ft | 366 kts | 15° |
| 2026-04-28 23:00 | 36.88956 | -5.72873 | 13404 ft | 364 kts | 16° |
| 2026-04-28 23:00 | 36.91367 | -5.71950 | 12915 ft | 360 kts | 16° |
| 2026-04-28 23:00 | 36.93755 | -5.71035 | 12448 ft | 357 kts | 16° |
| 2026-04-28 23:01 | 36.96112 | -5.70131 | 11988 ft | 353 kts | 16° |
| 2026-04-28 23:01 | 36.98448 | -5.69235 | 11521 ft | 349 kts | 16° |
| 2026-04-28 23:01 | 37.00756 | -5.68346 | 11067 ft | 346 kts | 16° |
| 2026-04-28 23:01 | 37.03044 | -5.67465 | 10617 ft | 343 kts | 16° |
| 2026-04-28 23:02 | 37.05315 | -5.66590 | 10223 ft | 338 kts | 16° |
| 2026-04-28 23:02 | 37.07517 | -5.65741 | 10112 ft | 326 kts | 16° |
| 2026-04-28 23:02 | 37.09639 | -5.64922 | 9991 ft | 314 kts | 16° |
| 2026-04-28 23:02 | 37.11696 | -5.64131 | 9852 ft | 304 kts | 17° |
| 2026-04-28 23:03 | 37.13700 | -5.63362 | 9564 ft | 300 kts | 17° |
| 2026-04-28 23:03 | 37.15696 | -5.62597 | 9175 ft | 300 kts | 17° |
| 2026-04-28 23:03 | 37.17716 | -5.61938 | 8811 ft | 299 kts | 8° |
| 2026-04-28 23:03 | 37.19780 | -5.61742 | 8459 ft | 297 kts | 2° |
| 2026-04-28 23:04 | 37.21840 | -5.61606 | 8106 ft | 296 kts | 3° |
| 2026-04-28 23:04 | 37.25953 | -5.61324 | 7409 ft | 294 kts | 3° |
| 2026-04-28 23:04 | 37.27992 | -5.61182 | 7069 ft | 293 kts | 3° |
| 2026-04-28 23:05 | 37.30042 | -5.61038 | 6365 ft | 297 kts | 4° |
| 2026-04-28 23:05 | 37.32115 | -5.60892 | 5567 ft | 300 kts | 4° |
| 2026-04-28 23:05 | 37.34182 | -5.60771 | 4795 ft | 301 kts | 359° |
| 2026-04-28 23:05 | 37.36277 | -5.61168 | 4062 ft | 299 kts | 342° |
| 2026-04-28 23:06 | 37.38077 | -5.62204 | 3852 ft | 279 kts | 327° |
| 2026-04-28 23:06 | 37.39537 | -5.63668 | 3676 ft | 260 kts | 313° |
| 2026-04-28 23:06 | 37.40637 | -5.65416 | 3453 ft | 244 kts | 300° |
| 2026-04-28 23:06 | 37.41349 | -5.67245 | 3207 ft | 230 kts | 288° |
| 2026-04-28 23:07 | 37.41743 | -5.69144 | 2933 ft | 219 kts | 277° |
| 2026-04-28 23:07 | 37.41837 | -5.71025 | 2662 ft | 208 kts | 268° |
| 2026-04-28 23:07 | 37.41834 | -5.72767 | 2434 ft | 196 kts | 265° |
| 2026-04-28 23:07 | 37.41832 | -5.74441 | 2148 ft | 185 kts | 264° |
| 2026-04-28 23:08 | 37.41831 | -5.75979 | 1937 ft | 166 kts | 264° |
| 2026-04-28 23:08 | 37.41829 | -5.77349 | 1729 ft | 151 kts | 263° |
| 2026-04-28 23:08 | 37.41822 | -5.78628 | 1434 ft | 142 kts | 263° |
| 2026-04-28 23:08 | 37.41819 | -5.79862 | 1163 ft | 141 kts | 264° |
| 2026-04-28 23:09 | 37.41802 | -5.81092 | 979 ft | 141 kts | 265° |
| 2026-04-28 23:09 | 37.41806 | -5.82347 | 825 ft | 146 kts | 268° |
| 2026-04-28 23:09 | 37.41813 | -5.83608 | 634 ft | 140 kts | 267° |
| 2026-04-28 23:09 | 37.41792 | -5.84852 | 514 ft | 146 kts | 267° |
| 2026-04-28 23:10 | 37.41802 | -5.86110 | 327 ft | 143 kts | 267° |
| 2026-04-28 23:10 | 37.41797 | -5.87330 | 159 ft | 138 kts | 269° |
| 2026-04-28 23:10 | 37.41797 | -5.88416 | 107 ft | 94 kts | 270° |
| 2026-04-28 23:10 | 37.41795 | -5.88854 | 104 ft | 11 kts | 269° |
| 2026-04-28 23:11 | 37.41795 | -5.88936 | 104 ft | 20 kts | 269° |
| 2026-04-28 23:11 | 37.41803 | -5.89166 | 100 ft | 23 kts | 284° |
| 2026-04-28 23:11 | 37.41913 | -5.89309 | 100 ft | 24 kts | 332° |
| 2026-04-28 23:11 | 37.42003 | -5.89381 | 99 ft | 14 kts | 315° |
| 2026-04-28 23:12 | 37.42080 | -5.89480 | 98 ft | 17 kts | 314° |
| 2026-04-28 23:12 | 37.42172 | -5.89600 | 98 ft | 21 kts | 314° |
| 2026-04-28 23:12 | 37.42258 | -5.89710 | 94 ft | 13 kts | 311° |
| 2026-04-28 23:12 | 37.42224 | -5.89808 | 95 ft | 16 kts | 226° |
| 2026-04-28 23:13 | 37.42168 | -5.89892 | 96 ft | 6 kts | 280° |
| 2026-04-28 23:13 | 37.42204 | -5.89934 | 94 ft | 8 kts | 316° |
| 2026-04-28 23:13 | 37.42217 | -5.89951 | 94 ft | 0 kts | 314° |